KCLL/CLL METAR and TAF weather

Enter ICAO airport designator
Station Type Date Time Source
KCLL METAR 2018/07/21 21:53 UTC NOAA

KCLL 212153Z 20010KT 10SM CLR 37/19 A2993 RMK AO2 SLP130 T03720194


Station Type Date Time Source
KCLL Decoded METAR 2018/07/21 21:53 UTC NOAA

COLLEGE STN EASTERWOOD FIELD, TX, United States (KCLL) 30-35N 096-22W 96M
Jul 21, 2018 - 05:53 PM EDT / 2018.07.21 2153 UTC
Wind: from the SSW (200 degrees) at 12 MPH (10 KT):0
Visibility: 10 mile(s):0
Sky conditions: clear
Temperature: 99.0 F (37.2 C)
Heat index: 103.6 F (39.8 C):1
Dew Point: 66.9 F (19.4 C)
Relative Humidity: 35%
Pressure (altimeter): 29.93 in. Hg (1013 hPa)
ob: KCLL 212153Z 20010KT 10SM CLR 37/19 A2993 RMK AO2 SLP130 T03720194
cycle: 22

Station Type Date Time Source
KCLL TAF 2018/07/21 18:22 UTC NOAA

TAF KCLL 211720Z 2118/2218 19008KT P6SM BKN250
FM221000 21004KT P6SM BKN010
FM221300 23007KT P6SM SCT250


Example: see airport list